Sejita, Texas
Current Conditions -  °F | °C
As of 4:15 PM on Thursday 18 Dec 2014 (Local Time) from KHBV Reporting Station
Overcast Overcast  
Wind Chill: 63°   Ceiling: 700
Heat Index: 63°   Visibility: 2.5mi
Dew Point: 62°   Wind: 3mph
Humidity: 94%   Direction: 300°WNW
Pressure: 29.99"   Gusts: NA
Location:  27.5098°N, 98.639°W
Report Text: KHBV 182215Z AUTO 30003KT 2 1/2SM OVC007 17/16 A2999 RMK AO2 T01740164 PWINO
Loading
Personal Weather Stations






























Interactive Weather Map New forecast layout! Learn more

10-Day Weather Forecast

Advertisements
Track Severe Weather on mobile